Time,TemperatureF,DewpointF,PressureIn,WindDirection,WindDirectionDegrees,WindSpeedMPH,WindSpeedGustMPH,Humidity,HourlyPrecipIn,Conditions,Clouds,dailyrainin,SolarRadiationWatts/m^2,SoftwareType,DateUTC
2013-09-14 00:00:00,45.0,45.0,-100.00,NE,38,1.0,2.0,98,-99.99,,,0.06,0.000000,,2013-09-14 06:00:00,
2013-09-14 00:52:00,45.0,45.0,-100.00,NE,38,1.0,2.0,98,-99.99,,,0.06,0.000000,,2013-09-14 06:52:00,
2013-09-14 02:00:00,46.0,45.0,-100.00,NE,39,1.0,2.0,98,-99.99,,,0.05,0.000000,,2013-09-14 08:00:00,
2013-09-14 02:52:00,46.0,45.0,-100.00,NE,39,1.0,2.0,98,-99.99,,,0.05,0.000000,,2013-09-14 08:52:00,
2013-09-14 04:00:00,44.0,44.0,-100.00,NE,39,1.0,2.0,98,-99.99,,,0.05,0.000000,,2013-09-14 10:00:00,
2013-09-14 04:53:00,44.0,44.0,-100.00,NE,39,1.0,2.0,98,-99.99,,,0.05,0.000000,,2013-09-14 10:53:00,
2013-09-14 05:00:00,44.0,43.0,-100.00,NE,39,2.0,3.0,98,-99.99,,,0.04,0.000000,,2013-09-14 11:00:00,
2013-09-14 05:52:00,44.0,43.0,-100.00,NE,39,2.0,3.0,98,-99.99,,,0.04,0.000000,,2013-09-14 11:52:00,
2013-09-14 06:00:00,44.0,44.0,-100.00,NE,39,2.0,3.0,98,-99.99,,,0.04,0.000000,,2013-09-14 12:00:00,
2013-09-14 06:52:00,44.0,44.0,-100.00,NE,39,2.0,3.0,98,-99.99,,,0.04,0.000000,,2013-09-14 12:52:00,
2013-09-14 07:00:00,46.0,45.0,-100.00,NE,38,1.0,2.0,98,-99.99,,,0.04,1.200000,,2013-09-14 13:00:00,
2013-09-14 07:52:00,46.0,45.0,-100.00,NE,38,1.0,2.0,98,-99.99,,,0.04,1.200000,,2013-09-14 13:52:00,
2013-09-14 08:00:00,47.0,47.0,-100.00,NE,41,0.0,1.0,98,-99.99,,,0.03,27.799999,,2013-09-14 14:00:00,
2013-09-14 08:52:00,47.0,47.0,-100.00,NE,41,0.0,1.0,98,-99.99,,,0.03,27.799999,,2013-09-14 14:52:00,
2013-09-14 09:00:00,48.0,47.0,-100.00,NE,43,0.0,1.0,98,-99.99,,,0.03,43.400002,,2013-09-14 15:00:00,
2013-09-14 09:53:00,48.0,47.0,-100.00,NE,43,0.0,1.0,98,-99.99,,,0.03,43.400002,,2013-09-14 15:53:00,
2013-09-14 10:00:00,48.0,47.0,-100.00,NE,50,0.0,2.0,97,-99.99,,,0.03,64.400002,,2013-09-14 16:00:00,
2013-09-14 10:54:00,48.0,47.0,-100.00,NE,50,0.0,2.0,97,-99.99,,,0.03,64.400002,,2013-09-14 16:54:00,
2013-09-14 11:00:00,48.0,47.0,-100.00,NNE,25,0.0,1.0,97,-99.99,,,0.02,74.500000,,2013-09-14 17:00:00,
2013-09-14 11:54:00,48.0,47.0,-100.00,NNE,25,0.0,1.0,97,-99.99,,,0.02,74.500000,,2013-09-14 17:54:00,
2013-09-14 12:00:00,49.0,48.0,-100.00,NE,42,0.0,2.0,96,-99.99,,,-99.99,156.000000,,2013-09-14 18:00:00,
2013-09-14 12:52:00,49.0,48.0,-100.00,NE,42,0.0,2.0,96,-99.99,,,-99.99,156.000000,,2013-09-14 18:52:00,
2013-09-14 14:00:00,51.0,49.0,-100.00,NNE,33,1.0,4.0,93,-99.99,,,0.00,290.899994,,2013-09-14 20:00:00,
2013-09-14 14:52:00,51.0,49.0,-100.00,NNE,33,1.0,4.0,93,-99.99,,,0.00,290.899994,,2013-09-14 20:52:00,
2013-09-14 15:00:00,52.0,49.0,-100.00,NNE,31,0.0,3.0,91,-99.99,,,0.00,173.399994,,2013-09-14 21:00:00,
2013-09-14 15:54:00,52.0,49.0,-100.00,NNE,31,0.0,3.0,91,-99.99,,,0.00,173.399994,,2013-09-14 21:54:00,
2013-09-14 16:00:00,54.0,50.0,-100.00,NNE,32,1.0,3.0,86,-99.99,,,0.00,311.100006,,2013-09-14 22:00:00,
2013-09-14 16:53:00,54.0,50.0,-100.00,NNE,32,1.0,3.0,86,-99.99,,,0.00,311.100006,,2013-09-14 22:53:00,
2013-09-14 17:00:00,54.0,49.0,-100.00,NNE,26,0.0,3.0,82,-99.99,,,0.00,113.599998,,2013-09-14 23:00:00,
2013-09-14 17:53:00,54.0,49.0,-100.00,NNE,26,0.0,3.0,82,-99.99,,,0.00,113.599998,,2013-09-14 23:53:00,
2013-09-14 20:00:00,48.0,47.0,-100.00,NNE,30,0.0,2.0,95,-99.99,,,0.00,0.300000,,2013-09-15 02:00:00,
2013-09-14 20:52:00,48.0,47.0,-100.00,NNE,30,0.0,2.0,95,-99.99,,,0.00,0.300000,,2013-09-15 02:52:00,
2013-09-14 21:00:00,-999.0,-99.9,-100.00,NE,46,1.0,6.0,-999,-99.99,,,-99.99,,,2013-09-15 03:00:00,
2013-09-14 21:55:00,44.0,43.0,-100.00,NE,46,1.0,6.0,96,-99.99,,,0.01,0.000000,,2013-09-15 03:55:00,
2013-09-14 22:00:00,45.0,44.0,-100.00,NE,39,2.0,3.0,97,-99.99,,,0.01,0.000000,,2013-09-15 04:00:00,
2013-09-14 22:54:00,45.0,44.0,-100.00,NE,39,2.0,3.0,97,-99.99,,,0.01,0.000000,,2013-09-15 04:54:00,
2013-09-14 23:00:00,44.0,44.0,-100.00,NE,40,2.0,3.0,98,-99.99,,,0.01,0.000000,,2013-09-15 05:00:00,
2013-09-14 23:52:00,44.0,44.0,-100.00,NE,40,2.0,3.0,98,-99.99,,,0.01,0.000000,,2013-09-15 05:52:00,